sensor_id;sensor_type;location;lat;lon;timestamp;P1;durP1;ratioP1;P2;durP2;ratioP2
47713;SDS011;33475;46.614;13.888;2023-05-15T00:01:20;1.88;;;1.77;;
47713;SDS011;33475;46.614;13.888;2023-05-15T00:03:47;4.88;;;1.45;;
47713;SDS011;33475;46.614;13.888;2023-05-15T00:06:15;2.00;;;1.63;;
47713;SDS011;33475;46.614;13.888;2023-05-15T00:08:41;3.28;;;1.65;;
47713;SDS011;33475;46.614;13.888;2023-05-15T00:11:08;2.05;;;1.85;;
47713;SDS011;33475;46.614;13.888;2023-05-15T00:13:34;2.20;;;2.03;;
47713;SDS011;33475;46.614;13.888;2023-05-15T00:16:00;2.58;;;2.20;;
47713;SDS011;33475;46.614;13.888;2023-05-15T00:18:26;2.08;;;1.80;;
47713;SDS011;33475;46.614;13.888;2023-05-15T00:20:52;2.63;;;1.90;;
47713;SDS011;33475;46.614;13.888;2023-05-15T00:23:18;2.42;;;2.22;;
47713;SDS011;33475;46.614;13.888;2023-05-15T00:25:44;1.50;;;1.40;;
47713;SDS011;33475;46.614;13.888;2023-05-15T00:28:10;1.13;;;1.13;;
47713;SDS011;33475;46.614;13.888;2023-05-15T00:30:37;2.58;;;1.70;;
47713;SDS011;33475;46.614;13.888;2023-05-15T00:33:03;1.45;;;1.10;;
47713;SDS011;33475;46.614;13.888;2023-05-15T00:35:30;1.35;;;1.15;;
47713;SDS011;33475;46.614;13.888;2023-05-15T00:37:57;1.67;;;1.25;;
47713;SDS011;33475;46.614;13.888;2023-05-15T00:40:23;1.67;;;1.38;;
47713;SDS011;33475;46.614;13.888;2023-05-15T00:42:50;5.47;;;1.40;;
47713;SDS011;33475;46.614;13.888;2023-05-15T00:45:17;3.42;;;1.35;;
47713;SDS011;33475;46.614;13.888;2023-05-15T00:47:44;1.30;;;1.20;;
47713;SDS011;33475;46.614;13.888;2023-05-15T00:50:11;3.15;;;1.38;;
47713;SDS011;33475;46.614;13.888;2023-05-15T00:52:37;1.50;;;1.40;;
47713;SDS011;33475;46.614;13.888;2023-05-15T00:55:04;2.20;;;2.00;;
47713;SDS011;33475;46.614;13.888;2023-05-15T00:57:30;3.00;;;2.20;;
47713;SDS011;33475;46.614;13.888;2023-05-15T00:59:56;4.55;;;1.90;;
47713;SDS011;33475;46.614;13.888;2023-05-15T01:02:24;2.63;;;2.10;;
47713;SDS011;33475;46.614;13.888;2023-05-15T01:04:50;5.72;;;2.28;;
47713;SDS011;33475;46.614;13.888;2023-05-15T01:07:16;3.30;;;2.15;;
47713;SDS011;33475;46.614;13.888;2023-05-15T01:09:43;3.13;;;1.58;;
47713;SDS011;33475;46.614;13.888;2023-05-15T01:12:10;1.67;;;1.58;;
47713;SDS011;33475;46.614;13.888;2023-05-15T01:14:36;3.72;;;1.70;;
47713;SDS011;33475;46.614;13.888;2023-05-15T01:17:02;3.30;;;1.33;;
47713;SDS011;33475;46.614;13.888;2023-05-15T01:19:29;1.50;;;1.13;;
47713;SDS011;33475;46.614;13.888;2023-05-15T01:22:17;1.10;;;1.10;;
47713;SDS011;33475;46.614;13.888;2023-05-15T01:29:52;1.67;;;1.30;;
47713;SDS011;33475;46.614;13.888;2023-05-15T01:37:17;3.50;;;1.23;;
47713;SDS011;33475;46.614;13.888;2023-05-15T01:39:44;1.90;;;1.20;;
47713;SDS011;33475;46.614;13.888;2023-05-15T01:42:14;1.60;;;1.50;;
47713;SDS011;33475;46.614;13.888;2023-05-15T01:44:43;1.60;;;1.50;;
47713;SDS011;33475;46.614;13.888;2023-05-15T01:47:15;2.20;;;2.10;;
47713;SDS011;33475;46.614;13.888;2023-05-15T01:49:43;5.70;;;1.70;;
47713;SDS011;33475;46.614;13.888;2023-05-15T01:52:29;2.95;;;1.90;;
47713;SDS011;33475;46.614;13.888;2023-05-15T01:54:57;2.70;;;2.50;;
47713;SDS011;33475;46.614;13.888;2023-05-15T01:57:25;3.63;;;2.30;;
47713;SDS011;33475;46.614;13.888;2023-05-15T01:59:51;3.22;;;2.10;;
47713;SDS011;33475;46.614;13.888;2023-05-15T02:02:18;5.13;;;2.58;;
47713;SDS011;33475;46.614;13.888;2023-05-15T02:04:44;2.70;;;2.20;;
47713;SDS011;33475;46.614;13.888;2023-05-15T02:07:11;4.80;;;1.95;;
47713;SDS011;33475;46.614;13.888;2023-05-15T02:09:38;1.65;;;1.52;;
47713;SDS011;33475;46.614;13.888;2023-05-15T02:12:05;4.20;;;1.63;;
47713;SDS011;33475;46.614;13.888;2023-05-15T02:14:32;8.65;;;1.63;;
47713;SDS011;33475;46.614;13.888;2023-05-15T02:16:59;3.45;;;1.70;;
47713;SDS011;33475;46.614;13.888;2023-05-15T02:19:26;2.13;;;1.77;;
47713;SDS011;33475;46.614;13.888;2023-05-15T02:21:52;2.88;;;1.98;;
47713;SDS011;33475;46.614;13.888;2023-05-15T02:24:18;1.73;;;1.45;;
47713;SDS011;33475;46.614;13.888;2023-05-15T02:32:46;1.20;;;1.10;;
47713;SDS011;33475;46.614;13.888;2023-05-15T02:37:55;1.42;;;1.10;;
47713;SDS011;33475;46.614;13.888;2023-05-15T02:40:22;1.30;;;1.20;;
47713;SDS011;33475;46.614;13.888;2023-05-15T02:42:49;1.50;;;1.13;;
47713;SDS011;33475;46.614;13.888;2023-05-15T02:45:18;1.13;;;1.02;;
47713;SDS011;33475;46.614;13.888;2023-05-15T02:47:44;1.55;;;1.27;;
47713;SDS011;33475;46.614;13.888;2023-05-15T02:50:14;2.47;;;1.10;;
47713;SDS011;33475;46.614;13.888;2023-05-15T02:52:41;4.68;;;2.63;;
47713;SDS011;33475;46.614;13.888;2023-05-15T02:55:08;5.82;;;3.40;;
47713;SDS011;33475;46.614;13.888;2023-05-15T02:57:34;2.92;;;2.42;;
47713;SDS011;33475;46.614;13.888;2023-05-15T03:00:01;3.25;;;2.30;;
47713;SDS011;33475;46.614;13.888;2023-05-15T03:02:29;6.32;;;2.92;;
47713;SDS011;33475;46.614;13.888;2023-05-15T03:04:55;6.35;;;2.80;;
47713;SDS011;33475;46.614;13.888;2023-05-15T03:07:21;6.10;;;3.90;;
47713;SDS011;33475;46.614;13.888;2023-05-15T03:09:47;6.05;;;3.67;;
47713;SDS011;33475;46.614;13.888;2023-05-15T03:12:14;5.47;;;3.47;;
47713;SDS011;33475;46.614;13.888;2023-05-15T03:14:40;3.78;;;2.53;;
47713;SDS011;33475;46.614;13.888;2023-05-15T03:17:06;2.45;;;1.90;;
47713;SDS011;33475;46.614;13.888;2023-05-15T03:19:32;4.57;;;1.27;;
47713;SDS011;33475;46.614;13.888;2023-05-15T03:21:58;1.40;;;1.30;;
47713;SDS011;33475;46.614;13.888;2023-05-15T03:24:25;1.63;;;1.30;;
47713;SDS011;33475;46.614;13.888;2023-05-15T03:26:51;1.17;;;1.05;;
47713;SDS011;33475;46.614;13.888;2023-05-15T03:29:17;1.38;;;1.27;;
47713;SDS011;33475;46.614;13.888;2023-05-15T03:31:43;1.25;;;1.20;;
47713;SDS011;33475;46.614;13.888;2023-05-15T03:34:09;1.55;;;1.30;;
47713;SDS011;33475;46.614;13.888;2023-05-15T03:36:35;2.70;;;1.58;;
47713;SDS011;33475;46.614;13.888;2023-05-15T03:39:01;1.50;;;1.40;;
47713;SDS011;33475;46.614;13.888;2023-05-15T03:41:29;2.05;;;1.50;;
47713;SDS011;33475;46.614;13.888;2023-05-15T03:43:55;2.00;;;1.73;;
47713;SDS011;33475;46.614;13.888;2023-05-15T03:46:21;1.40;;;1.30;;
47713;SDS011;33475;46.614;13.888;2023-05-15T03:48:47;1.40;;;1.30;;
47713;SDS011;33475;46.614;13.888;2023-05-15T03:51:14;1.75;;;1.60;;
47713;SDS011;33475;46.614;13.888;2023-05-15T03:53:40;4.43;;;1.85;;
47713;SDS011;33475;46.614;13.888;2023-05-15T03:56:06;4.05;;;2.13;;
47713;SDS011;33475;46.614;13.888;2023-05-15T03:58:32;3.15;;;1.80;;
47713;SDS011;33475;46.614;13.888;2023-05-15T04:00:58;2.92;;;1.63;;
47713;SDS011;33475;46.614;13.888;2023-05-15T04:03:24;2.45;;;1.30;;
47713;SDS011;33475;46.614;13.888;2023-05-15T04:05:50;1.70;;;1.40;;
47713;SDS011;33475;46.614;13.888;2023-05-15T04:08:17;2.15;;;1.30;;
47713;SDS011;33475;46.614;13.888;2023-05-15T04:10:43;1.02;;;0.90;;
47713;SDS011;33475;46.614;13.888;2023-05-15T04:13:09;1.13;;;0.95;;
47713;SDS011;33475;46.614;13.888;2023-05-15T04:15:35;2.60;;;1.10;;
47713;SDS011;33475;46.614;13.888;2023-05-15T04:18:01;0.93;;;0.80;;
47713;SDS011;33475;46.614;13.888;2023-05-15T04:20:27;1.48;;;0.80;;
47713;SDS011;33475;46.614;13.888;2023-05-15T04:22:54;3.95;;;1.20;;
47713;SDS011;33475;46.614;13.888;2023-05-15T04:25:20;2.33;;;1.55;;
47713;SDS011;33475;46.614;13.888;2023-05-15T04:27:46;3.70;;;1.95;;
47713;SDS011;33475;46.614;13.888;2023-05-15T04:30:13;4.13;;;1.60;;
47713;SDS011;33475;46.614;13.888;2023-05-15T04:32:39;4.30;;;1.70;;
47713;SDS011;33475;46.614;13.888;2023-05-15T04:35:06;6.50;;;2.50;;
47713;SDS011;33475;46.614;13.888;2023-05-15T04:37:34;2.90;;;1.88;;
47713;SDS011;33475;46.614;13.888;2023-05-15T04:40:00;7.35;;;1.92;;
47713;SDS011;33475;46.614;13.888;2023-05-15T04:42:27;4.03;;;1.73;;
47713;SDS011;33475;46.614;13.888;2023-05-15T04:44:53;3.10;;;1.80;;
47713;SDS011;33475;46.614;13.888;2023-05-15T04:47:19;6.82;;;1.55;;
47713;SDS011;33475;46.614;13.888;2023-05-15T04:49:45;1.83;;;1.50;;
47713;SDS011;33475;46.614;13.888;2023-05-15T04:52:12;1.50;;;1.10;;
47713;SDS011;33475;46.614;13.888;2023-05-15T04:54:38;2.15;;;1.30;;
47713;SDS011;33475;46.614;13.888;2023-05-15T04:57:04;2.13;;;1.50;;
47713;SDS011;33475;46.614;13.888;2023-05-15T04:59:31;2.28;;;1.65;;
47713;SDS011;33475;46.614;13.888;2023-05-15T05:01:57;2.20;;;1.40;;
47713;SDS011;33475;46.614;13.888;2023-05-15T05:04:23;3.28;;;1.27;;
47713;SDS011;33475;46.614;13.888;2023-05-15T05:06:49;4.93;;;1.58;;
47713;SDS011;33475;46.614;13.888;2023-05-15T05:09:17;1.13;;;1.00;;
47713;SDS011;33475;46.614;13.888;2023-05-15T05:11:43;0.65;;;0.65;;
47713;SDS011;33475;46.614;13.888;2023-05-15T05:14:09;1.02;;;0.80;;
47713;SDS011;33475;46.614;13.888;2023-05-15T05:16:36;1.38;;;0.88;;
47713;SDS011;33475;46.614;13.888;2023-05-15T05:19:02;2.58;;;0.50;;
47713;SDS011;33475;46.614;13.888;2023-05-15T05:21:29;2.05;;;0.82;;
47713;SDS011;33475;46.614;13.888;2023-05-15T05:23:55;0.95;;;0.73;;
47713;SDS011;33475;46.614;13.888;2023-05-15T05:26:21;2.47;;;1.67;;
47713;SDS011;33475;46.614;13.888;2023-05-15T05:28:47;1.58;;;1.40;;
47713;SDS011;33475;46.614;13.888;2023-05-15T05:31:13;4.43;;;1.75;;
47713;SDS011;33475;46.614;13.888;2023-05-15T05:33:40;6.57;;;1.77;;
47713;SDS011;33475;46.614;13.888;2023-05-15T05:36:06;2.58;;;1.40;;
47713;SDS011;33475;46.614;13.888;2023-05-15T05:38:33;2.20;;;1.30;;
47713;SDS011;33475;46.614;13.888;2023-05-15T05:41:00;1.83;;;0.90;;
47713;SDS011;33475;46.614;13.888;2023-05-15T05:43:27;2.05;;;1.38;;
47713;SDS011;33475;46.614;13.888;2023-05-15T05:45:53;4.80;;;0.90;;
47713;SDS011;33475;46.614;13.888;2023-05-15T05:48:20;1.55;;;0.85;;
47713;SDS011;33475;46.614;13.888;2023-05-15T05:50:46;1.52;;;0.77;;
47713;SDS011;33475;46.614;13.888;2023-05-15T05:53:12;2.97;;;0.80;;
47713;SDS011;33475;46.614;13.888;2023-05-15T05:55:38;1.55;;;0.80;;
47713;SDS011;33475;46.614;13.888;2023-05-15T05:58:04;0.80;;;0.80;;
47713;SDS011;33475;46.614;13.888;2023-05-15T06:00:30;1.08;;;0.70;;
47713;SDS011;33475;46.614;13.888;2023-05-15T06:02:57;3.20;;;0.40;;
47713;SDS011;33475;46.614;13.888;2023-05-15T06:05:24;1.70;;;0.52;;
47713;SDS011;33475;46.614;13.888;2023-05-15T06:07:50;1.40;;;0.68;;
47713;SDS011;33475;46.614;13.888;2023-05-15T06:10:17;2.25;;;0.60;;
47713;SDS011;33475;46.614;13.888;2023-05-15T06:12:43;1.02;;;0.80;;
47713;SDS011;33475;46.614;13.888;2023-05-15T06:15:10;1.30;;;0.60;;
47713;SDS011;33475;46.614;13.888;2023-05-15T06:17:37;0.68;;;0.68;;
47713;SDS011;33475;46.614;13.888;2023-05-15T06:20:03;0.80;;;0.50;;
47713;SDS011;33475;46.614;13.888;2023-05-15T06:22:36;0.50;;;0.50;;
47713;SDS011;33475;46.614;13.888;2023-05-15T06:25:03;2.63;;;0.60;;
47713;SDS011;33475;46.614;13.888;2023-05-15T06:27:30;0.70;;;0.70;;
47713;SDS011;33475;46.614;13.888;2023-05-15T06:29:57;3.05;;;0.80;;
47713;SDS011;33475;46.614;13.888;2023-05-15T06:32:23;0.50;;;0.50;;
47713;SDS011;33475;46.614;13.888;2023-05-15T06:34:49;0.60;;;0.50;;
47713;SDS011;33475;46.614;13.888;2023-05-15T06:37:15;2.92;;;0.80;;
47713;SDS011;33475;46.614;13.888;2023-05-15T06:39:42;2.38;;;0.63;;
47713;SDS011;33475;46.614;13.888;2023-05-15T06:42:08;0.93;;;0.70;;
47713;SDS011;33475;46.614;13.888;2023-05-15T06:44:34;2.05;;;0.50;;
47713;SDS011;33475;46.614;13.888;2023-05-15T06:47:00;0.45;;;0.45;;
47713;SDS011;33475;46.614;13.888;2023-05-15T06:49:26;1.15;;;0.70;;
47713;SDS011;33475;46.614;13.888;2023-05-15T06:51:53;1.02;;;0.80;;
47713;SDS011;33475;46.614;13.888;2023-05-15T06:54:19;0.50;;;0.50;;
47713;SDS011;33475;46.614;13.888;2023-05-15T06:56:46;15.73;;;1.45;;
47713;SDS011;33475;46.614;13.888;2023-05-15T06:59:12;1.98;;;0.40;;
47713;SDS011;33475;46.614;13.888;2023-05-15T07:01:38;0.30;;;0.30;;
47713;SDS011;33475;46.614;13.888;2023-05-15T07:04:04;2.63;;;0.30;;
47713;SDS011;33475;46.614;13.888;2023-05-15T07:06:30;1.27;;;0.30;;
47713;SDS011;33475;46.614;13.888;2023-05-15T07:08:57;2.67;;;0.28;;
47713;SDS011;33475;46.614;13.888;2023-05-15T07:11:23;0.90;;;0.40;;
47713;SDS011;33475;46.614;13.888;2023-05-15T07:13:50;0.82;;;0.30;;
47713;SDS011;33475;46.614;13.888;2023-05-15T07:16:16;0.90;;;0.40;;
47713;SDS011;33475;46.614;13.888;2023-05-15T07:18:43;0.32;;;0.30;;
47713;SDS011;33475;46.614;13.888;2023-05-15T07:21:09;6.40;;;0.50;;
47713;SDS011;33475;46.614;13.888;2023-05-15T07:23:35;1.65;;;0.40;;
47713;SDS011;33475;46.614;13.888;2023-05-15T07:26:01;3.45;;;0.25;;
47713;SDS011;33475;46.614;13.888;2023-05-15T07:28:27;1.63;;;0.43;;
47713;SDS011;33475;46.614;13.888;2023-05-15T07:30:53;1.25;;;0.28;;
47713;SDS011;33475;46.614;13.888;2023-05-15T07:33:19;0.60;;;0.15;;
47713;SDS011;33475;46.614;13.888;2023-05-15T07:35:45;1.02;;;0.47;;
47713;SDS011;33475;46.614;13.888;2023-05-15T07:38:12;1.45;;;0.35;;
47713;SDS011;33475;46.614;13.888;2023-05-15T07:40:38;2.92;;;0.60;;
47713;SDS011;33475;46.614;13.888;2023-05-15T07:43:04;3.15;;;0.30;;
47713;SDS011;33475;46.614;13.888;2023-05-15T07:45:30;0.20;;;0.20;;
47713;SDS011;33475;46.614;13.888;2023-05-15T07:47:56;0.70;;;0.30;;
47713;SDS011;33475;46.614;13.888;2023-05-15T07:50:22;1.05;;;0.30;;
47713;SDS011;33475;46.614;13.888;2023-05-15T07:52:49;0.88;;;0.20;;
47713;SDS011;33475;46.614;13.888;2023-05-15T07:55:15;0.30;;;0.20;;
47713;SDS011;33475;46.614;13.888;2023-05-15T07:57:41;1.27;;;0.70;;
47713;SDS011;33475;46.614;13.888;2023-05-15T08:00:07;1.10;;;0.47;;
47713;SDS011;33475;46.614;13.888;2023-05-15T08:02:37;4.72;;;0.63;;
47713;SDS011;33475;46.614;13.888;2023-05-15T08:05:04;0.70;;;0.65;;
47713;SDS011;33475;46.614;13.888;2023-05-15T08:07:31;1.35;;;0.30;;
47713;SDS011;33475;46.614;13.888;2023-05-15T08:10:00;1.15;;;0.22;;
47713;SDS011;33475;46.614;13.888;2023-05-15T08:12:30;0.38;;;0.15;;
47713;SDS011;33475;46.614;13.888;2023-05-15T08:14:56;0.20;;;0.20;;
47713;SDS011;33475;46.614;13.888;2023-05-15T08:17:23;0.20;;;0.20;;
47713;SDS011;33475;46.614;13.888;2023-05-15T08:19:49;0.25;;;0.25;;
47713;SDS011;33475;46.614;13.888;2023-05-15T08:22:15;0.22;;;0.20;;
47713;SDS011;33475;46.614;13.888;2023-05-15T08:24:41;0.73;;;0.30;;
47713;SDS011;33475;46.614;13.888;2023-05-15T08:27:08;0.60;;;0.30;;
47713;SDS011;33475;46.614;13.888;2023-05-15T08:29:34;0.80;;;0.28;;
47713;SDS011;33475;46.614;13.888;2023-05-15T08:32:01;3.40;;;0.30;;
47713;SDS011;33475;46.614;13.888;2023-05-15T08:34:28;1.60;;;0.13;;
47713;SDS011;33475;46.614;13.888;2023-05-15T08:36:54;0.20;;;0.20;;
47713;SDS011;33475;46.614;13.888;2023-05-15T08:39:21;0.38;;;0.32;;
47713;SDS011;33475;46.614;13.888;2023-05-15T08:44:13;2.65;;;0.20;;
47713;SDS011;33475;46.614;13.888;2023-05-15T08:46:39;0.82;;;0.40;;
47713;SDS011;33475;46.614;13.888;2023-05-15T08:49:50;1.00;;;0.40;;
47713;SDS011;33475;46.614;13.888;2023-05-15T08:51:56;0.20;;;0.20;;
47713;SDS011;33475;46.614;13.888;2023-05-15T08:54:22;0.20;;;0.20;;
47713;SDS011;33475;46.614;13.888;2023-05-15T08:56:49;1.48;;;0.28;;
47713;SDS011;33475;46.614;13.888;2023-05-15T08:59:15;0.55;;;0.50;;
47713;SDS011;33475;46.614;13.888;2023-05-15T09:01:41;0.35;;;0.20;;
47713;SDS011;33475;46.614;13.888;2023-05-15T09:04:08;1.38;;;0.47;;
47713;SDS011;33475;46.614;13.888;2023-05-15T09:06:34;0.43;;;0.35;;
47713;SDS011;33475;46.614;13.888;2023-05-15T09:09:01;0.75;;;0.32;;
47713;SDS011;33475;46.614;13.888;2023-05-15T09:11:29;0.45;;;0.30;;
47713;SDS011;33475;46.614;13.888;2023-05-15T09:13:59;0.38;;;0.38;;
47713;SDS011;33475;46.614;13.888;2023-05-15T09:16:26;0.57;;;0.30;;
47713;SDS011;33475;46.614;13.888;2023-05-15T09:18:52;0.90;;;0.30;;
47713;SDS011;33475;46.614;13.888;2023-05-15T09:21:25;1.42;;;0.20;;
47713;SDS011;33475;46.614;13.888;2023-05-15T09:26:37;0.47;;;0.40;;
47713;SDS011;33475;46.614;13.888;2023-05-15T09:29:04;1.10;;;0.20;;
47713;SDS011;33475;46.614;13.888;2023-05-15T09:31:31;0.30;;;0.20;;
47713;SDS011;33475;46.614;13.888;2023-05-15T09:34:00;1.95;;;0.20;;
47713;SDS011;33475;46.614;13.888;2023-05-15T09:36:28;0.73;;;0.52;;
47713;SDS011;33475;46.614;13.888;2023-05-15T09:38:59;1.60;;;1.20;;
47713;SDS011;33475;46.614;13.888;2023-05-15T09:41:25;0.17;;;0.17;;
47713;SDS011;33475;46.614;13.888;2023-05-15T09:43:52;0.20;;;0.20;;
47713;SDS011;33475;46.614;13.888;2023-05-15T09:46:23;0.65;;;0.10;;
47713;SDS011;33475;46.614;13.888;2023-05-15T09:48:53;0.20;;;0.10;;
47713;SDS011;33475;46.614;13.888;2023-05-15T09:51:19;0.60;;;0.60;;
47713;SDS011;33475;46.614;13.888;2023-05-15T09:53:49;1.15;;;0.40;;
47713;SDS011;33475;46.614;13.888;2023-05-15T09:56:17;0.98;;;0.38;;
47713;SDS011;33475;46.614;13.888;2023-05-15T09:58:53;0.30;;;0.30;;
47713;SDS011;33475;46.614;13.888;2023-05-15T10:01:20;0.73;;;0.40;;
47713;SDS011;33475;46.614;13.888;2023-05-15T10:03:56;0.32;;;0.30;;
47713;SDS011;33475;46.614;13.888;2023-05-15T10:06:23;0.70;;;0.70;;
47713;SDS011;33475;46.614;13.888;2023-05-15T10:08:50;0.20;;;0.20;;
47713;SDS011;33475;46.614;13.888;2023-05-15T10:11:17;2.30;;;0.20;;
47713;SDS011;33475;46.614;13.888;2023-05-15T10:13:45;0.60;;;0.57;;
47713;SDS011;33475;46.614;13.888;2023-05-15T10:16:12;0.82;;;0.30;;
47713;SDS011;33475;46.614;13.888;2023-05-15T10:18:39;0.30;;;0.28;;
47713;SDS011;33475;46.614;13.888;2023-05-15T10:21:06;0.30;;;0.30;;
47713;SDS011;33475;46.614;13.888;2023-05-15T10:23:34;0.52;;;0.20;;
47713;SDS011;33475;46.614;13.888;2023-05-15T10:26:03;0.40;;;0.10;;
47713;SDS011;33475;46.614;13.888;2023-05-15T10:28:31;1.25;;;0.30;;
47713;SDS011;33475;46.614;13.888;2023-05-15T10:30:59;0.20;;;0.20;;
47713;SDS011;33475;46.614;13.888;2023-05-15T10:33:25;0.20;;;0.20;;
47713;SDS011;33475;46.614;13.888;2023-05-15T10:35:51;0.20;;;0.20;;
47713;SDS011;33475;46.614;13.888;2023-05-15T10:38:18;1.88;;;0.40;;
47713;SDS011;33475;46.614;13.888;2023-05-15T10:40:46;2.75;;;0.30;;
47713;SDS011;33475;46.614;13.888;2023-05-15T10:43:12;1.27;;;0.30;;
47713;SDS011;33475;46.614;13.888;2023-05-15T10:45:38;0.32;;;0.30;;
47713;SDS011;33475;46.614;13.888;2023-05-15T10:48:05;0.20;;;0.20;;
47713;SDS011;33475;46.614;13.888;2023-05-15T10:50:35;0.75;;;0.15;;
47713;SDS011;33475;46.614;13.888;2023-05-15T10:53:01;1.08;;;0.22;;
47713;SDS011;33475;46.614;13.888;2023-05-15T10:55:27;0.40;;;0.40;;
47713;SDS011;33475;46.614;13.888;2023-05-15T10:57:55;0.50;;;0.50;;
47713;SDS011;33475;46.614;13.888;2023-05-15T11:02:48;0.20;;;0.20;;
47713;SDS011;33475;46.614;13.888;2023-05-15T11:05:17;0.65;;;0.65;;
47713;SDS011;33475;46.614;13.888;2023-05-15T11:08:15;0.40;;;0.30;;
47713;SDS011;33475;46.614;13.888;2023-05-15T11:12:57;0.40;;;0.20;;
47713;SDS011;33475;46.614;13.888;2023-05-15T11:15:23;0.65;;;0.13;;
47713;SDS011;33475;46.614;13.888;2023-05-15T11:18:05;0.38;;;0.38;;
47713;SDS011;33475;46.614;13.888;2023-05-15T11:21:04;2.03;;;0.25;;
47713;SDS011;33475;46.614;13.888;2023-05-15T11:23:22;0.60;;;0.20;;
47713;SDS011;33475;46.614;13.888;2023-05-15T11:25:52;0.57;;;0.20;;
47713;SDS011;33475;46.614;13.888;2023-05-15T11:30:51;0.20;;;0.10;;
47713;SDS011;33475;46.614;13.888;2023-05-15T11:33:18;0.10;;;0.08;;
47713;SDS011;33475;46.614;13.888;2023-05-15T11:35:45;1.05;;;0.35;;
47713;SDS011;33475;46.614;13.888;2023-05-15T11:40:51;0.93;;;0.20;;
47713;SDS011;33475;46.614;13.888;2023-05-15T11:48:22;0.10;;;0.00;;
47713;SDS011;33475;46.614;13.888;2023-05-15T11:50:49;2.17;;;0.10;;
47713;SDS011;33475;46.614;13.888;2023-05-15T11:53:19;1.75;;;0.30;;
47713;SDS011;33475;46.614;13.888;2023-05-15T11:55:47;0.20;;;0.00;;
47713;SDS011;33475;46.614;13.888;2023-05-15T11:58:14;0.68;;;0.32;;
47713;SDS011;33475;46.614;13.888;2023-05-15T12:00:41;1.48;;;0.00;;
47713;SDS011;33475;46.614;13.888;2023-05-15T12:03:14;0.00;;;0.00;;
47713;SDS011;33475;46.614;13.888;2023-05-15T12:05:40;3.95;;;0.10;;
47713;SDS011;33475;46.614;13.888;2023-05-15T12:08:10;2.55;;;0.20;;
47713;SDS011;33475;46.614;13.888;2023-05-15T12:10:40;1.25;;;0.10;;
47713;SDS011;33475;46.614;13.888;2023-05-15T12:13:07;0.30;;;0.10;;
47713;SDS011;33475;46.614;13.888;2023-05-15T12:15:35;0.68;;;0.10;;
47713;SDS011;33475;46.614;13.888;2023-05-15T12:18:02;2.53;;;0.10;;
47713;SDS011;33475;46.614;13.888;2023-05-15T12:20:31;1.17;;;0.15;;
47713;SDS011;33475;46.614;13.888;2023-05-15T12:22:57;0.63;;;0.20;;
47713;SDS011;33475;46.614;13.888;2023-05-15T12:25:24;1.08;;;0.10;;
47713;SDS011;33475;46.614;13.888;2023-05-15T12:27:51;2.92;;;0.00;;
47713;SDS011;33475;46.614;13.888;2023-05-15T12:30:18;0.25;;;0.10;;
47713;SDS011;33475;46.614;13.888;2023-05-15T12:32:44;0.80;;;0.00;;
47713;SDS011;33475;46.614;13.888;2023-05-15T12:35:10;1.17;;;0.10;;
47713;SDS011;33475;46.614;13.888;2023-05-15T12:37:37;0.80;;;0.28;;
47713;SDS011;33475;46.614;13.888;2023-05-15T12:40:04;0.45;;;0.00;;
47713;SDS011;33475;46.614;13.888;2023-05-15T12:45:10;1.95;;;0.03;;
47713;SDS011;33475;46.614;13.888;2023-05-15T12:47:37;0.90;;;0.10;;
47713;SDS011;33475;46.614;13.888;2023-05-15T12:52:40;0.17;;;0.10;;
47713;SDS011;33475;46.614;13.888;2023-05-15T12:55:32;0.10;;;0.03;;
47713;SDS011;33475;46.614;13.888;2023-05-15T12:57:58;0.20;;;0.00;;
47713;SDS011;33475;46.614;13.888;2023-05-15T13:00:29;0.68;;;0.10;;
47713;SDS011;33475;46.614;13.888;2023-05-15T13:02:58;0.00;;;0.00;;
47713;SDS011;33475;46.614;13.888;2023-05-15T13:05:25;2.13;;;0.20;;
47713;SDS011;33475;46.614;13.888;2023-05-15T13:07:51;4.88;;;0.10;;
47713;SDS011;33475;46.614;13.888;2023-05-15T13:10:21;0.17;;;0.10;;
47713;SDS011;33475;46.614;13.888;2023-05-15T13:12:48;1.65;;;0.10;;
47713;SDS011;33475;46.614;13.888;2023-05-15T13:15:25;1.38;;;0.28;;
47713;SDS011;33475;46.614;13.888;2023-05-15T13:17:52;2.10;;;0.03;;
47713;SDS011;33475;46.614;13.888;2023-05-15T13:20:20;2.35;;;0.17;;
47713;SDS011;33475;46.614;13.888;2023-05-15T13:22:47;0.45;;;0.20;;
47713;SDS011;33475;46.614;13.888;2023-05-15T13:25:17;1.60;;;0.43;;
47713;SDS011;33475;46.614;13.888;2023-05-15T13:27:45;2.10;;;1.17;;
47713;SDS011;33475;46.614;13.888;2023-05-15T13:30:11;3.80;;;1.02;;
47713;SDS011;33475;46.614;13.888;2023-05-15T13:32:38;0.40;;;0.20;;
47713;SDS011;33475;46.614;13.888;2023-05-15T13:35:04;1.85;;;0.20;;
47713;SDS011;33475;46.614;13.888;2023-05-15T13:37:31;2.33;;;0.70;;
47713;SDS011;33475;46.614;13.888;2023-05-15T13:39:57;1.95;;;0.20;;
47713;SDS011;33475;46.614;13.888;2023-05-15T13:42:23;0.98;;;0.50;;
47713;SDS011;33475;46.614;13.888;2023-05-15T13:44:49;1.42;;;0.40;;
47713;SDS011;33475;46.614;13.888;2023-05-15T13:47:15;0.88;;;0.35;;
47713;SDS011;33475;46.614;13.888;2023-05-15T13:49:41;0.65;;;0.20;;
47713;SDS011;33475;46.614;13.888;2023-05-15T13:52:08;0.68;;;0.50;;
47713;SDS011;33475;46.614;13.888;2023-05-15T13:54:34;0.85;;;0.80;;
47713;SDS011;33475;46.614;13.888;2023-05-15T13:57:00;0.10;;;0.00;;
47713;SDS011;33475;46.614;13.888;2023-05-15T13:59:26;0.52;;;0.10;;
47713;SDS011;33475;46.614;13.888;2023-05-15T14:01:52;4.97;;;0.10;;
47713;SDS011;33475;46.614;13.888;2023-05-15T14:04:19;0.10;;;0.10;;
47713;SDS011;33475;46.614;13.888;2023-05-15T14:06:45;0.30;;;0.30;;
47713;SDS011;33475;46.614;13.888;2023-05-15T14:09:11;0.15;;;0.00;;
47713;SDS011;33475;46.614;13.888;2023-05-15T14:11:37;0.00;;;0.00;;
47713;SDS011;33475;46.614;13.888;2023-05-15T14:14:03;0.30;;;0.13;;
47713;SDS011;33475;46.614;13.888;2023-05-15T14:16:30;5.68;;;5.03;;
47713;SDS011;33475;46.614;13.888;2023-05-15T14:18:56;7.55;;;6.82;;
47713;SDS011;33475;46.614;13.888;2023-05-15T14:21:22;6.25;;;5.65;;
47713;SDS011;33475;46.614;13.888;2023-05-15T14:23:48;2.97;;;2.47;;
47713;SDS011;33475;46.614;13.888;2023-05-15T14:26:14;1.27;;;0.82;;
47713;SDS011;33475;46.614;13.888;2023-05-15T14:28:40;1.20;;;0.98;;
47713;SDS011;33475;46.614;13.888;2023-05-15T14:31:07;2.08;;;1.70;;
47713;SDS011;33475;46.614;13.888;2023-05-15T14:33:33;3.30;;;2.85;;
47713;SDS011;33475;46.614;13.888;2023-05-15T14:35:59;0.98;;;0.77;;
47713;SDS011;33475;46.614;13.888;2023-05-15T14:38:25;0.00;;;0.00;;
47713;SDS011;33475;46.614;13.888;2023-05-15T14:40:51;0.20;;;0.10;;
47713;SDS011;33475;46.614;13.888;2023-05-15T14:43:17;0.10;;;0.00;;
47713;SDS011;33475;46.614;13.888;2023-05-15T14:45:44;0.20;;;0.00;;
47713;SDS011;33475;46.614;13.888;2023-05-15T14:48:10;3.10;;;0.00;;
47713;SDS011;33475;46.614;13.888;2023-05-15T14:50:36;0.38;;;0.20;;
47713;SDS011;33475;46.614;13.888;2023-05-15T14:53:02;0.00;;;0.00;;
47713;SDS011;33475;46.614;13.888;2023-05-15T14:55:28;0.25;;;0.10;;
47713;SDS011;33475;46.614;13.888;2023-05-15T14:57:54;0.00;;;0.00;;
47713;SDS011;33475;46.614;13.888;2023-05-15T15:00:23;0.68;;;0.20;;
47713;SDS011;33475;46.614;13.888;2023-05-15T15:02:49;0.30;;;0.20;;
47713;SDS011;33475;46.614;13.888;2023-05-15T15:05:15;0.30;;;0.30;;
47713;SDS011;33475;46.614;13.888;2023-05-15T15:07:58;0.15;;;0.15;;
47713;SDS011;33475;46.614;13.888;2023-05-15T15:10:25;5.35;;;0.30;;
47713;SDS011;33475;46.614;13.888;2023-05-15T15:12:51;2.90;;;0.38;;
47713;SDS011;33475;46.614;13.888;2023-05-15T15:15:18;0.15;;;0.15;;
47713;SDS011;33475;46.614;13.888;2023-05-15T15:17:44;2.33;;;0.40;;